Accueil
METAR-TAF:

METAR-TAF

Aéroports :

Aéroport international de Cambridge

Cambridge, Angleterre

latitude: 52-12N, longitude: 000-11E, altitude: 15 m

Observation

Le bulletin a été fait il y a 57 minutes, à 17:50 UTC
Vent 4 kt de nord-ouest
Température 12°C
Humidité 50%
Pression 1032 hPa
Visibilité 10 km ou plus
Nuages épars à une hauteur de 4200 ft

METAR: EGSC 261750Z 31004KT 9999 SCT042 12/02 Q1032

Heure: 18:47 (18:47 UTC)

Prévision

Le bulletin a été fait il y a 1 heure et 49 minutes, à 16:58 UTC
Prévision valable du 26 à 18 UTC au 26 à 21 UTC
Vent 8 kt de nord-ouest
Visibilité 10 km ou plus
Nuages épars à une hauteur de 3500 ft

TAF: EGSC 261658Z 2618/2621 32008KT 9999 SCT035

Observations et prévisions météorologiques de plus de 4000 aéroports (messages METAR et TAF).

Les stations disponibles sont représentées par des disques jaunes et rouges sur la carte.

Passer la souris dessus pour voir le nom de la station.

Cliquer dessus pour voir les observations et prévisions météorologiques.

Pour changer de carte: cliquez sur les boutons verts avec une croix noire pour zoomer, sur le bouton vert avec un tiret pour effectuer un zoom arrière, ou sur les flèches vertes pour les cartes adjacentes.


METAR-TAF: